createdAt,value
2023-01-23T00:01:25.994Z,27.00
2023-01-23T00:03:53.585Z,29.23
2023-01-23T00:06:20.229Z,24.13
2023-01-23T00:08:46.714Z,25.57
2023-01-23T00:11:18.362Z,25.90
2023-01-23T00:13:45.382Z,30.33
2023-01-23T00:16:14.883Z,25.20
2023-01-23T00:18:41.173Z,34.00
2023-01-23T00:21:10.484Z,27.60
2023-01-23T00:23:36.786Z,26.30
2023-01-23T00:26:10.331Z,31.17
2023-01-23T00:28:36.808Z,66.13
2023-01-23T00:31:08.675Z,34.77
2023-01-23T00:33:34.983Z,28.97
2023-01-23T00:36:01.795Z,32.80
2023-01-23T00:38:29.486Z,38.23
2023-01-23T00:40:56.013Z,37.20
2023-01-23T00:43:23.145Z,29.57
2023-01-23T00:45:50.097Z,28.17
2023-01-23T00:48:16.697Z,25.37
2023-01-23T00:50:44.237Z,33.93
2023-01-23T00:53:10.420Z,33.10
2023-01-23T00:55:36.856Z,37.07
2023-01-23T00:58:02.954Z,28.90
2023-01-23T01:00:29.923Z,30.10
2023-01-23T01:02:56.356Z,35.50
2023-01-23T01:05:23.049Z,26.27
2023-01-23T01:07:49.203Z,36.30
2023-01-23T01:10:15.817Z,30.27
2023-01-23T01:12:42.100Z,28.30
2023-01-23T01:15:09.471Z,32.30
2023-01-23T01:17:36.711Z,26.70
2023-01-23T01:20:04.840Z,25.13
2023-01-23T01:22:31.299Z,21.80
2023-01-23T01:24:57.804Z,24.30
2023-01-23T01:27:24.397Z,19.80
2023-01-23T01:29:50.847Z,31.23
2023-01-23T01:32:17.020Z,31.70
2023-01-23T01:34:43.719Z,27.77
2023-01-23T01:37:09.936Z,32.00
2023-01-23T01:39:36.630Z,36.80
2023-01-23T01:42:02.857Z,34.47
2023-01-23T01:44:53.738Z,37.67
2023-01-23T01:47:19.947Z,25.90
2023-01-23T01:49:47.547Z,27.13
2023-01-23T01:52:15.554Z,28.90
2023-01-23T01:54:46.039Z,25.30
2023-01-23T01:57:15.245Z,24.57
2023-01-23T01:59:49.179Z,22.70
2023-01-23T02:02:21.386Z,32.40
2023-01-23T02:04:52.083Z,24.23
2023-01-23T02:07:31.464Z,23.70
2023-01-23T02:09:58.041Z,24.53
2023-01-23T02:12:26.128Z,24.30
2023-01-23T02:14:52.918Z,23.23
2023-01-23T02:17:19.255Z,23.60
2023-01-23T02:19:59.125Z,23.43
2023-01-23T02:22:34.360Z,27.20
2023-01-23T02:25:17.053Z,31.30
2023-01-23T02:27:44.262Z,22.00
2023-01-23T02:30:11.508Z,26.23
2023-01-23T02:32:37.649Z,25.60
2023-01-23T02:35:11.790Z,21.90
2023-01-23T02:37:43.211Z,22.03
2023-01-23T02:40:12.459Z,23.63
2023-01-23T02:42:42.293Z,40.00
2023-01-23T02:45:11.552Z,26.27
2023-01-23T02:47:37.743Z,29.30
2023-01-23T02:50:04.506Z,31.10
2023-01-23T02:52:31.296Z,38.93
2023-01-23T02:54:57.777Z,198.50
2023-01-23T02:57:24.699Z,41.27
2023-01-23T03:00:10.009Z,47.93
2023-01-23T03:02:37.578Z,39.20
2023-01-23T03:05:05.321Z,31.77
2023-01-23T03:07:31.500Z,25.60
2023-01-23T03:09:57.937Z,33.90
2023-01-23T03:12:24.110Z,26.97
2023-01-23T03:14:54.046Z,26.40
2023-01-23T03:17:21.264Z,24.97
2023-01-23T03:19:48.012Z,23.77
2023-01-23T03:22:14.662Z,23.80
2023-01-23T03:24:41.212Z,23.00
2023-01-23T03:27:07.480Z,27.83
2023-01-23T03:30:03.035Z,26.33
2023-01-23T03:32:30.087Z,20.20
2023-01-23T03:34:57.295Z,27.60
2023-01-23T03:37:23.671Z,28.70
2023-01-23T03:40:09.297Z,28.83
2023-01-23T03:42:35.885Z,23.77
2023-01-23T03:45:04.497Z,22.67
2023-01-23T03:47:34.175Z,23.07
2023-01-23T03:50:00.588Z,26.57
2023-01-23T03:52:29.352Z,24.40
2023-01-23T03:54:57.393Z,24.90
2023-01-23T03:57:23.565Z,24.40
2023-01-23T04:00:03.876Z,22.50
2023-01-23T04:02:40.516Z,26.00
2023-01-23T04:05:09.521Z,26.23
2023-01-23T04:07:35.783Z,23.50
2023-01-23T04:10:02.996Z,23.90
2023-01-23T04:12:29.265Z,21.53
2023-01-23T04:14:56.124Z,25.77
2023-01-23T04:17:22.291Z,33.77
2023-01-23T04:19:49.085Z,32.23
2023-01-23T04:22:15.284Z,28.20
2023-01-23T04:24:46.294Z,25.87
2023-01-23T04:27:12.907Z,31.77
2023-01-23T04:29:39.564Z,27.03
2023-01-23T04:32:09.146Z,31.23
2023-01-23T04:34:39.512Z,29.60
2023-01-23T04:37:06.242Z,25.80
2023-01-23T04:39:33.205Z,25.87
2023-01-23T04:41:59.359Z,23.30
2023-01-23T04:44:30.193Z,22.40
2023-01-23T04:47:19.231Z,28.07
2023-01-23T04:49:45.725Z,23.83
2023-01-23T04:52:11.913Z,22.07
2023-01-23T04:54:43.931Z,21.93
2023-01-23T04:57:10.053Z,23.87
2023-01-23T04:59:36.613Z,38.73
2023-01-23T05:02:03.056Z,33.63
2023-01-23T05:04:36.636Z,24.87
2023-01-23T05:07:03.205Z,31.07
2023-01-23T05:09:34.113Z,30.80
2023-01-23T05:12:00.328Z,37.40
2023-01-23T05:14:28.993Z,31.10
2023-01-23T05:16:55.168Z,27.13
2023-01-23T05:19:44.943Z,31.70
2023-01-23T05:22:11.261Z,25.40
2023-01-23T05:24:37.732Z,24.33
2023-01-23T05:27:04.667Z,28.97
2023-01-23T05:29:35.372Z,30.80
2023-01-23T05:32:07.634Z,36.03
2023-01-23T05:34:37.585Z,30.43
2023-01-23T05:37:10.440Z,29.17
2023-01-23T05:39:38.911Z,29.73
2023-01-23T05:42:05.184Z,37.33
2023-01-23T05:45:07.399Z,39.00
2023-01-23T05:47:38.819Z,29.83
2023-01-23T05:50:08.378Z,33.17
2023-01-23T05:52:36.243Z,23.87
2023-01-23T05:55:03.847Z,29.50
2023-01-23T05:57:31.581Z,27.73
2023-01-23T06:00:18.983Z,30.63
2023-01-23T06:03:06.086Z,26.90
2023-01-23T06:05:52.862Z,32.60
2023-01-23T06:08:19.464Z,32.97
2023-01-23T06:10:46.071Z,31.87
2023-01-23T06:13:12.947Z,53.77
2023-01-23T06:15:40.634Z,30.43
2023-01-23T06:18:11.262Z,32.47
2023-01-23T06:20:37.896Z,23.83
2023-01-23T06:23:04.587Z,24.30
2023-01-23T06:25:31.529Z,27.90
2023-01-23T06:28:00.927Z,29.53
2023-01-23T06:30:30.094Z,137.97
2023-01-23T06:32:56.622Z,84.53
2023-01-23T06:35:31.305Z,40.07
2023-01-23T06:37:57.513Z,27.83
2023-01-23T06:40:24.855Z,35.67
2023-01-23T06:43:09.415Z,31.63
2023-01-23T06:45:36.255Z,49.73
2023-01-23T06:48:02.765Z,23.03
2023-01-23T06:50:29.606Z,28.57
2023-01-23T06:52:55.885Z,37.20
2023-01-23T06:55:22.620Z,25.50
2023-01-23T06:57:49.233Z,26.13
2023-01-23T07:00:16.384Z,24.23
2023-01-23T07:02:45.398Z,28.43
2023-01-23T07:05:13.019Z,29.70
2023-01-23T07:07:44.127Z,28.07
2023-01-23T07:10:11.069Z,24.67
2023-01-23T07:12:37.903Z,29.97
2023-01-23T07:15:06.464Z,25.27
2023-01-23T07:17:37.563Z,24.60
2023-01-23T07:20:05.519Z,27.33
2023-01-23T07:22:33.344Z,22.90
2023-01-23T07:25:00.078Z,26.60
2023-01-23T07:27:26.387Z,31.03
2023-01-23T07:29:52.876Z,23.33
2023-01-23T07:32:19.065Z,25.97
2023-01-23T07:34:45.536Z,26.07
2023-01-23T07:37:11.753Z,29.57
2023-01-23T07:39:38.191Z,27.10
2023-01-23T07:42:04.611Z,26.13
2023-01-23T07:44:31.171Z,33.73
2023-01-23T07:46:57.331Z,25.07
2023-01-23T07:49:23.787Z,25.17
2023-01-23T07:51:50.044Z,26.63
2023-01-23T07:54:16.671Z,26.77
2023-01-23T07:56:42.877Z,31.50
2023-01-23T07:59:11.745Z,31.50
2023-01-23T08:01:37.856Z,29.83
2023-01-23T08:04:04.577Z,28.93
2023-01-23T08:06:30.857Z,32.87
2023-01-23T08:08:57.389Z,23.73
2023-01-23T08:11:25.723Z,26.37
2023-01-23T08:13:52.166Z,31.63
2023-01-23T08:16:19.118Z,29.17
2023-01-23T08:18:46.122Z,27.63
2023-01-23T08:21:12.334Z,26.27
2023-01-23T08:23:40.346Z,30.60
2023-01-23T08:26:08.124Z,26.83
2023-01-23T08:28:35.451Z,26.50
2023-01-23T08:31:06.853Z,31.57
2023-01-23T08:33:35.073Z,40.70
2023-01-23T08:36:02.058Z,26.13
2023-01-23T08:38:30.743Z,31.47
2023-01-23T08:41:02.011Z,29.43
2023-01-23T08:43:29.769Z,27.80
2023-01-23T08:45:58.285Z,28.07
2023-01-23T08:48:26.536Z,27.97
2023-01-23T08:50:59.726Z,28.00
2023-01-23T08:53:27.414Z,26.33
2023-01-23T08:55:57.992Z,26.30
2023-01-23T08:58:24.484Z,25.50
2023-01-23T09:00:50.656Z,28.00
2023-01-23T09:03:17.380Z,23.13
2023-01-23T09:05:43.650Z,28.83
2023-01-23T09:08:10.133Z,29.57
2023-01-23T09:10:36.403Z,27.37
2023-01-23T09:13:03.858Z,30.50
2023-01-23T09:15:30.495Z,35.13
2023-01-23T09:17:57.407Z,31.20
2023-01-23T09:20:28.294Z,28.47
2023-01-23T09:22:54.945Z,36.60
2023-01-23T09:25:21.477Z,23.60
2023-01-23T09:27:48.530Z,27.17
2023-01-23T09:30:14.977Z,34.23
2023-01-23T09:32:41.710Z,32.50
2023-01-23T09:35:08.537Z,28.63
2023-01-23T09:37:58.475Z,29.93
2023-01-23T09:40:29.908Z,30.80
2023-01-23T09:43:02.258Z,34.00
2023-01-23T09:45:30.025Z,31.57
2023-01-23T09:48:43.238Z,29.63
2023-01-23T09:51:23.189Z,33.10
2023-01-23T09:53:51.920Z,30.57
2023-01-23T09:56:28.300Z,31.07
2023-01-23T09:58:59.842Z,27.90
2023-01-23T10:01:29.494Z,31.63
2023-01-23T10:03:59.179Z,30.30
2023-01-23T10:06:31.617Z,25.27
2023-01-23T10:09:19.993Z,27.73
2023-01-23T10:12:04.838Z,33.10
2023-01-23T10:14:50.173Z,33.93
2023-01-23T10:17:41.233Z,31.10
2023-01-23T10:20:44.396Z,36.40
2023-01-23T10:23:46.207Z,34.50
2023-01-23T10:26:21.224Z,33.30
2023-01-23T10:28:48.289Z,32.40
2023-01-23T10:31:28.005Z,32.43
2023-01-23T10:34:05.393Z,33.97
2023-01-23T10:36:53.961Z,39.40
2023-01-23T10:39:30.924Z,38.63
2023-01-23T10:42:02.309Z,36.93
2023-01-23T10:44:29.206Z,34.83
2023-01-23T10:47:23.486Z,35.00
2023-01-23T10:49:49.744Z,36.60
2023-01-23T10:52:34.594Z,38.97
2023-01-23T10:55:01.343Z,37.10
2023-01-23T10:57:30.557Z,39.30
2023-01-23T11:00:04.316Z,37.53
2023-01-23T11:02:33.265Z,41.37
2023-01-23T11:05:00.767Z,39.00
2023-01-23T11:07:30.009Z,38.87
2023-01-23T11:10:20.141Z,35.93
2023-01-23T11:12:53.352Z,38.60
2023-01-23T11:15:24.294Z,41.27
2023-01-23T11:17:52.809Z,40.27
2023-01-23T11:20:24.841Z,38.17
2023-01-23T11:23:12.667Z,39.93
2023-01-23T11:25:43.882Z,37.53
2023-01-23T11:28:33.123Z,36.23
2023-01-23T11:31:15.157Z,34.20
2023-01-23T11:33:54.271Z,50.20
2023-01-23T11:36:38.389Z,42.60
2023-01-23T11:39:15.948Z,45.93
2023-01-23T11:41:44.952Z,42.83
2023-01-23T11:44:23.088Z,42.73
2023-01-23T11:47:12.826Z,47.37
2023-01-23T11:50:16.883Z,39.20
2023-01-23T11:52:49.630Z,43.73
2023-01-23T11:55:28.221Z,44.73
2023-01-23T11:58:06.958Z,45.33
2023-01-23T12:00:49.405Z,40.83
2023-01-23T12:03:40.143Z,44.20
2023-01-23T12:06:28.178Z,42.73
2023-01-23T12:09:01.302Z,41.27
2023-01-23T12:11:40.274Z,43.03
2023-01-23T12:14:20.379Z,37.47
2023-01-23T12:17:23.826Z,37.77
2023-01-23T12:19:59.867Z,42.33
2023-01-23T12:22:33.775Z,38.37
2023-01-23T12:25:27.851Z,38.57
2023-01-23T12:28:21.529Z,40.33
2023-01-23T12:31:12.005Z,46.30
2023-01-23T12:34:06.620Z,50.03
2023-01-23T12:37:08.215Z,43.70
2023-01-23T12:39:50.469Z,38.80
2023-01-23T12:42:44.971Z,47.03
2023-01-23T12:45:15.239Z,42.93
2023-01-23T12:47:44.652Z,39.00
2023-01-23T12:50:20.639Z,47.17
2023-01-23T12:52:59.649Z,45.97
2023-01-23T12:55:53.530Z,43.73
2023-01-23T12:58:21.932Z,38.33
2023-01-23T13:00:54.343Z,43.33
2023-01-23T13:03:46.846Z,49.90
2023-01-23T13:06:22.521Z,51.70
2023-01-23T13:09:18.408Z,46.07
2023-01-23T13:12:15.684Z,45.70
2023-01-23T13:15:00.553Z,47.97
2023-01-23T13:17:30.313Z,43.43
2023-01-23T13:20:41.236Z,49.60
2023-01-23T13:23:34.630Z,51.17
2023-01-23T13:26:11.906Z,51.60
2023-01-23T13:28:56.497Z,67.47
2023-01-23T13:31:40.584Z,59.37
2023-01-23T13:34:30.652Z,44.27
2023-01-23T13:37:50.249Z,45.70
2023-01-23T13:40:20.481Z,47.77
2023-01-23T13:42:46.914Z,47.60
2023-01-23T13:45:16.151Z,43.53
2023-01-23T14:22:31.028Z,45.93
2023-01-23T14:24:58.316Z,43.47
2023-01-23T14:27:51.388Z,45.70
2023-01-23T14:30:24.056Z,47.53
2023-01-23T14:32:50.222Z,51.90
2023-01-23T14:35:29.377Z,63.13
2023-01-23T14:38:02.301Z,57.60
2023-01-23T14:40:35.166Z,75.77
2023-01-23T14:43:08.193Z,67.60
2023-01-23T14:45:36.746Z,118.17
2023-01-23T14:48:07.146Z,56.83
2023-01-23T14:50:34.837Z,60.90
2023-01-23T14:53:20.122Z,152.37
2023-01-23T14:55:49.116Z,52.20
2023-01-23T14:58:23.112Z,43.13
2023-01-23T15:00:52.731Z,57.23
2023-01-23T15:03:40.309Z,47.63
2023-01-23T15:06:11.519Z,54.57
2023-01-23T15:08:38.409Z,54.73
2023-01-23T15:11:11.159Z,56.00
2023-01-23T15:13:45.072Z,57.43
2023-01-23T15:16:19.733Z,56.27
2023-01-23T15:18:56.811Z,53.30
2023-01-23T15:21:39.865Z,53.23
2023-01-23T15:24:16.266Z,54.47
2023-01-23T15:27:04.505Z,52.63
2023-01-23T15:29:32.237Z,55.27
2023-01-23T15:31:59.670Z,58.10
2023-01-23T15:34:33.818Z,49.30
2023-01-23T15:37:19.376Z,44.10
2023-01-23T15:39:45.597Z,44.83
2023-01-23T15:42:12.050Z,42.60
2023-01-23T15:44:38.614Z,50.33
2023-01-23T15:47:06.175Z,54.70
2023-01-23T15:49:34.626Z,44.90
2023-01-23T15:52:17.878Z,54.97
2023-01-23T15:54:44.655Z,93.13
2023-01-23T15:57:14.859Z,56.73
2023-01-23T15:59:41.372Z,46.53
2023-01-23T16:02:41.673Z,47.63
2023-01-23T16:05:07.395Z,40.43
2023-01-23T16:07:39.893Z,38.63
2023-01-23T16:10:21.738Z,34.67
2023-01-23T16:12:50.322Z,51.63
2023-01-23T16:15:19.806Z,50.47
2023-01-23T16:17:47.108Z,46.07
2023-01-23T16:20:21.385Z,42.20
2023-01-23T16:22:52.641Z,48.87
2023-01-23T16:25:41.888Z,46.97
2023-01-23T16:28:18.202Z,53.03
2023-01-23T16:30:45.656Z,53.30
2023-01-23T16:33:12.543Z,49.77
2023-01-23T16:35:39.933Z,76.80
2023-01-23T16:38:13.282Z,61.80
2023-01-23T16:40:39.831Z,143.00
2023-01-23T16:43:06.781Z,76.83
2023-01-23T16:45:33.042Z,96.03
2023-01-23T16:48:00.080Z,116.97
2023-01-23T16:50:38.737Z,89.17
2023-01-23T16:53:28.093Z,79.27
2023-01-23T16:55:57.337Z,228.70
2023-01-23T16:58:27.845Z,113.50
2023-01-23T17:01:00.435Z,113.30
2023-01-23T17:03:32.865Z,81.37
2023-01-23T17:05:59.671Z,86.27
2023-01-23T17:08:26.943Z,74.97
2023-01-23T17:10:58.426Z,66.77
2023-01-23T17:13:26.246Z,59.97
2023-01-23T17:15:55.219Z,63.63
2023-01-23T17:18:21.684Z,61.83
2023-01-23T17:20:48.903Z,61.07
2023-01-23T17:23:15.782Z,59.10
2023-01-23T17:25:59.331Z,63.73
2023-01-23T17:28:27.637Z,50.87
2023-01-23T17:30:54.609Z,54.43
2023-01-23T17:33:24.180Z,61.37
2023-01-23T17:35:51.730Z,56.63
2023-01-23T17:38:31.580Z,59.93
2023-01-23T17:40:57.886Z,58.60
2023-01-23T17:43:24.604Z,62.30
2023-01-23T17:45:51.879Z,58.83
2023-01-23T17:48:26.603Z,58.07
2023-01-23T17:50:53.180Z,61.90
2023-01-23T17:53:19.760Z,71.90
2023-01-23T17:55:50.640Z,59.77
2023-01-23T17:58:18.365Z,66.57
2023-01-23T18:00:50.031Z,65.83
2023-01-23T18:03:20.970Z,67.90
2023-01-23T18:05:47.519Z,68.20
2023-01-23T18:08:18.774Z,61.53
2023-01-23T18:10:47.423Z,65.97
2023-01-23T18:13:27.077Z,65.10
2023-01-23T18:16:19.307Z,68.17
2023-01-23T18:18:52.476Z,66.47
2023-01-23T18:21:20.007Z,69.30
2023-01-23T18:23:47.021Z,72.40
2023-01-23T18:26:39.574Z,64.33
2023-01-23T18:29:09.271Z,60.00
2023-01-23T18:31:47.803Z,70.83
2023-01-23T18:34:43.749Z,72.57
2023-01-23T18:37:31.593Z,67.37
2023-01-23T18:40:03.657Z,62.57
2023-01-23T18:42:44.382Z,66.50
2023-01-23T18:45:23.450Z,63.10
2023-01-23T18:47:53.521Z,92.50
2023-01-23T18:50:24.623Z,125.30
2023-01-23T18:53:06.257Z,101.13
2023-01-23T18:55:41.925Z,94.47
2023-01-23T18:58:35.892Z,83.27
2023-01-23T19:01:24.055Z,85.10
2023-01-23T19:03:52.604Z,76.07
2023-01-23T19:06:24.827Z,78.23
2023-01-23T19:08:53.517Z,79.50
2023-01-23T19:11:31.950Z,66.20
2023-01-23T19:14:04.534Z,72.67
2023-01-23T19:16:32.469Z,64.90
2023-01-23T19:19:19.668Z,75.37
2023-01-23T19:21:47.252Z,74.17
2023-01-23T19:24:17.651Z,78.87
2023-01-23T19:26:45.066Z,67.17
2023-01-23T19:29:21.442Z,63.93
2023-01-23T19:32:03.604Z,62.97
2023-01-23T19:34:31.602Z,61.57
2023-01-23T19:36:58.371Z,56.67
2023-01-23T19:39:24.806Z,59.70
2023-01-23T19:41:52.543Z,60.73
2023-01-23T19:44:23.271Z,60.33
2023-01-23T19:46:50.331Z,65.30
2023-01-23T19:49:16.921Z,59.17
2023-01-23T19:51:43.786Z,60.97
2023-01-23T19:54:15.005Z,56.93
2023-01-23T19:56:42.016Z,60.10
2023-01-23T19:59:08.665Z,58.93
2023-01-23T20:01:37.959Z,63.43
2023-01-23T20:04:07.911Z,62.47
2023-01-23T20:06:38.033Z,64.60
2023-01-23T20:09:04.573Z,57.03
2023-01-23T20:11:31.067Z,59.63
2023-01-23T20:13:57.340Z,57.73
2023-01-23T20:16:25.424Z,59.87
2023-01-23T20:18:53.261Z,61.90
2023-01-23T20:21:22.656Z,64.17
2023-01-23T20:23:49.432Z,60.67
2023-01-23T20:26:19.321Z,60.07
2023-01-23T20:28:48.201Z,65.43
2023-01-23T20:31:15.791Z,58.40
2023-01-23T20:33:42.092Z,59.97
2023-01-23T20:36:12.785Z,58.87
2023-01-23T20:38:41.103Z,58.43
2023-01-23T20:41:10.733Z,62.10
2023-01-23T20:43:42.070Z,60.63
2023-01-23T20:46:10.060Z,64.67
2023-01-23T20:48:38.950Z,66.77
2023-01-23T20:51:08.658Z,56.53
2023-01-23T20:53:39.116Z,60.63
2023-01-23T20:56:15.578Z,59.60
2023-01-23T20:59:06.401Z,63.63
2023-01-23T21:01:54.692Z,60.37
2023-01-23T21:04:22.819Z,62.77
2023-01-23T21:06:49.383Z,62.40
2023-01-23T21:09:15.845Z,64.50
2023-01-23T21:11:42.449Z,59.70
2023-01-23T21:14:09.057Z,65.00
2023-01-23T21:16:35.854Z,66.00
2023-01-23T21:19:02.955Z,59.50
2023-01-23T21:21:29.652Z,64.20
2023-01-23T21:23:56.279Z,63.27
2023-01-23T21:26:25.398Z,61.17
2023-01-23T21:28:53.566Z,62.50
2023-01-23T21:31:21.297Z,58.97
2023-01-23T21:33:48.155Z,59.47
2023-01-23T21:36:18.532Z,58.30
2023-01-23T21:38:45.078Z,58.90
2023-01-23T21:41:12.199Z,61.27
2023-01-23T21:43:38.816Z,63.20
2023-01-23T21:46:05.894Z,62.10
2023-01-23T21:48:32.998Z,62.33
2023-01-23T21:51:10.282Z,49.57
2023-01-23T21:53:38.391Z,61.83
2023-01-23T21:56:08.973Z,64.73
2023-01-23T21:58:35.580Z,59.13
2023-01-23T22:01:29.072Z,55.83
2023-01-23T22:03:55.825Z,59.13
2023-01-23T22:06:22.438Z,55.47
2023-01-23T22:08:49.316Z,57.73
2023-01-23T22:11:15.816Z,60.23
2023-01-23T22:13:42.033Z,57.53
2023-01-23T22:16:08.883Z,60.00
2023-01-23T22:18:35.057Z,61.33
2023-01-23T22:21:03.849Z,57.67
2023-01-23T22:23:30.516Z,61.10
2023-01-23T22:26:00.781Z,55.57
2023-01-23T22:28:27.706Z,60.17
2023-01-23T22:30:55.267Z,65.33
2023-01-23T22:33:22.525Z,58.67
2023-01-23T22:35:50.503Z,54.57
2023-01-23T22:38:16.705Z,55.53
2023-01-23T22:40:43.252Z,55.70
2023-01-23T22:43:09.607Z,55.63
2023-01-23T22:45:36.136Z,57.70
2023-01-23T22:48:03.450Z,59.07
2023-01-23T22:50:29.891Z,51.90
2023-01-23T22:52:56.077Z,56.80
2023-01-23T22:55:22.859Z,56.53
2023-01-23T22:57:51.567Z,53.50
2023-01-23T23:00:18.253Z,57.87
2023-01-23T23:02:44.397Z,51.57
2023-01-23T23:05:11.061Z,57.13
2023-01-23T23:07:37.186Z,52.67
2023-01-23T23:10:05.747Z,52.40
2023-01-23T23:12:32.752Z,55.87
2023-01-23T23:14:59.281Z,49.60
2023-01-23T23:17:28.297Z,55.13
2023-01-23T23:19:54.854Z,52.57
2023-01-23T23:22:21.214Z,52.27
2023-01-23T23:24:48.259Z,56.27
2023-01-23T23:27:14.465Z,57.47
2023-01-23T23:29:40.865Z,52.63
2023-01-23T23:32:07.138Z,49.20
2023-01-23T23:34:35.652Z,50.57
2023-01-23T23:37:02.301Z,51.90
2023-01-23T23:39:28.826Z,53.03
2023-01-23T23:41:55.113Z,53.97
2023-01-23T23:44:21.665Z,54.00
2023-01-23T23:46:47.812Z,52.87
2023-01-23T23:49:14.245Z,48.37
2023-01-23T23:51:40.422Z,43.83
2023-01-23T23:54:06.909Z,47.60
2023-01-23T23:56:33.026Z,49.77
2023-01-23T23:58:59.469Z,47.60
